Time;durP1;ratioP1;P1;durP2;ratioP2;P2;SDS_P1;SDS_P2;PMS_P1;PMS_P2;Temp;Humidity;BMP_temperature;BMP_pressure;BME280_temperature;BME280_humidity;BME280_pressure;Samples;Min_cycle;Max_cycle;Signal;HPM_P1;HPM_P2
2021/07/15 00:01:36;;;;;;;10.00;9.20;;;;;;;;;;6277581;22;20427;-76
2021/07/15 00:04:02;;;;;;;10.00;9.10;;;;;;;;;;6277447;22;20000;-75
2021/07/15 00:06:28;;;;;;;10.15;9.35;;;;;;;;;;6277522;22;20106;-77
2021/07/15 00:08:55;;;;;;;11.13;10.05;;;;;;;;;;6277380;22;20424;-77
2021/07/15 00:11:23;;;;;;;11.20;9.40;;;;;;;;;;6277362;22;20090;-74
2021/07/15 00:13:49;;;;;;;10.20;9.27;;;;;;;;;;6250238;22;20313;-78
2021/07/15 00:16:15;;;;;;;10.40;9.13;;;;;;;;;;6277198;22;20007;-77
2021/07/15 00:18:43;;;;;;;10.70;9.70;;;;;;;;;;6277323;22;20340;-76
2021/07/15 00:21:10;;;;;;;9.90;9.10;;;;;;;;;;6277255;22;20014;-76
2021/07/15 00:23:37;;;;;;;11.15;10.20;;;;;;;;;;6277761;22;20300;-75
2021/07/15 00:26:04;;;;;;;11.07;9.93;;;;;;;;;;6277220;22;20012;-76
2021/07/15 00:28:31;;;;;;;12.13;11.02;;;;;;;;;;6277178;22;19999;-76
2021/07/15 00:30:57;;;;;;;10.52;9.30;;;;;;;;;;6277284;22;20022;-74
2021/07/15 00:33:23;;;;;;;11.38;10.40;;;;;;;;;;6277372;22;20007;-75
2021/07/15 00:35:50;;;;;;;12.32;10.18;;;;;;;;;;6277001;22;20450;-75
2021/07/15 00:38:16;;;;;;;10.57;9.68;;;;;;;;;;6249855;22;20023;-77
2021/07/15 00:40:43;;;;;;;11.65;9.60;;;;;;;;;;6277040;22;20446;-76
2021/07/15 00:43:09;;;;;;;16.73;10.07;;;;;;;;;;6250372;22;20014;-75
2021/07/15 00:45:35;;;;;;;11.65;10.07;;;;;;;;;;6277262;22;20007;-76
2021/07/15 00:48:01;;;;;;;11.77;10.00;;;;;;;;;;6277093;22;20011;-75
2021/07/15 00:50:28;;;;;;;10.68;9.57;;;;;;;;;;6276782;22;20435;-75
2021/07/15 00:52:54;;;;;;;10.68;9.63;;;;;;;;;;6277066;22;20000;-76
2021/07/15 00:55:23;;;;;;;10.88;9.88;;;;;;;;;;6249867;22;20038;-74
2021/07/15 00:57:50;;;;;;;11.48;10.25;;;;;;;;;;6277047;22;20391;-75
2021/07/15 01:00:16;;;;;;;11.15;9.65;;;;;;;;;;6249854;22;20046;-74
2021/07/15 01:02:43;;;;;;;11.32;10.32;;;;;;;;;;6276924;22;20484;-75
2021/07/15 01:05:13;;;;;;;10.43;9.52;;;;;;;;;;6276785;22;20000;-74
2021/07/15 01:07:40;;;;;;;10.98;9.82;;;;;;;;;;6276936;22;19992;-78
2021/07/15 01:10:07;;;;;;;10.23;9.32;;;;;;;;;;6276851;22;20007;-75
2021/07/15 01:12:51;;;;;;;10.77;9.68;;;;;;;;;;6276951;22;20004;-76
2021/07/15 01:15:21;;;;;;;11.55;10.45;;;;;;;;;;6277118;22;19995;-77
2021/07/15 01:17:57;;;;;;;9.68;8.77;;;;;;;;;;6277003;22;20031;-76
2021/07/15 01:20:42;;;;;;;10.27;9.48;;;;;;;;;;6276780;22;20324;-75
2021/07/15 01:23:27;;;;;;;10.30;9.50;;;;;;;;;;6277097;22;20327;-73
2021/07/15 01:25:55;;;;;;;11.00;10.15;;;;;;;;;;6276732;22;20007;-73
2021/07/15 01:28:42;;;;;;;11.48;10.30;;;;;;;;;;6249695;22;20435;-75
2021/07/15 01:31:09;;;;;;;10.73;9.73;;;;;;;;;;6276629;22;19999;-77
2021/07/15 01:33:37;;;;;;;13.07;10.52;;;;;;;;;;6276861;22;20394;-76
2021/07/15 01:36:10;;;;;;;12.35;11.05;;;;;;;;;;6276587;22;20089;-77
2021/07/15 01:38:39;;;;;;;12.85;11.25;;;;;;;;;;6276638;22;20354;-77
2021/07/15 01:41:07;;;;;;;12.10;11.00;;;;;;;;;;6276629;22;20442;-78
2021/07/15 01:43:35;;;;;;;11.20;10.13;;;;;;;;;;6276761;22;20031;-77
2021/07/15 01:46:03;;;;;;;10.88;9.98;;;;;;;;;;6276622;22;19996;-76
2021/07/15 01:48:29;;;;;;;11.95;10.88;;;;;;;;;;6277131;22;20071;-77
2021/07/15 01:50:56;;;;;;;11.93;10.80;;;;;;;;;;6276724;22;20004;-77
2021/07/15 01:53:22;;;;;;;12.25;11.07;;;;;;;;;;6276704;22;20061;-75
2021/07/15 01:55:48;;;;;;;12.50;11.40;;;;;;;;;;6249377;22;20000;-75
2021/07/15 01:58:14;;;;;;;12.75;11.25;;;;;;;;;;6276620;22;20373;-77
2021/07/15 02:00:41;;;;;;;12.57;11.43;;;;;;;;;;6276597;22;20046;-77
2021/07/15 02:03:07;;;;;;;12.50;11.38;;;;;;;;;;6277753;22;20000;-75
2021/07/15 02:05:34;;;;;;;12.27;11.25;;;;;;;;;;6278675;22;20000;-74
2021/07/15 02:08:01;;;;;;;12.63;11.32;;;;;;;;;;6278433;22;20309;-77
2021/07/15 02:10:27;;;;;;;14.13;11.80;;;;;;;;;;6251299;22;20408;-75
2021/07/15 02:12:54;;;;;;;11.63;10.48;;;;;;;;;;6278538;22;19996;-77
2021/07/15 02:15:20;;;;;;;13.20;11.80;;;;;;;;;;6278505;22;20004;-74
2021/07/15 02:17:47;;;;;;;12.93;11.10;;;;;;;;;;6278431;22;20003;-77
2021/07/15 02:20:15;;;;;;;12.40;11.10;;;;;;;;;;6251351;22;20081;-78
2021/07/15 02:22:42;;;;;;;13.27;11.20;;;;;;;;;;6251387;22;20462;-75
2021/07/15 02:25:08;;;;;;;12.25;11.23;;;;;;;;;;6278386;22;20426;-74
2021/07/15 02:27:35;;;;;;;13.32;12.13;;;;;;;;;;6278490;22;20481;-75
2021/07/15 02:30:01;;;;;;;12.55;11.27;;;;;;;;;;6251259;22;20023;-77
2021/07/15 02:32:28;;;;;;;14.00;12.68;;;;;;;;;;6278514;22;20070;-73
2021/07/15 02:34:58;;;;;;;12.13;11.05;;;;;;;;;;6278293;22;20474;-76
2021/07/15 02:37:36;;;;;;;13.25;12.15;;;;;;;;;;6251103;22;20334;-76
2021/07/15 02:40:12;;;;;;;13.20;11.90;;;;;;;;;;6251188;22;20074;-73
2021/07/15 02:42:44;;;;;;;15.52;11.57;;;;;;;;;;6278357;22;20442;-77
2021/07/15 02:45:12;;;;;;;13.55;12.25;;;;;;;;;;6278311;22;20137;-76
2021/07/15 02:47:42;;;;;;;13.35;11.88;;;;;;;;;;6278237;22;20081;-75
2021/07/15 02:50:09;;;;;;;12.85;11.55;;;;;;;;;;6250975;22;20007;-77
2021/07/15 02:52:35;;;;;;;14.88;12.23;;;;;;;;;;6278297;22;20074;-73
2021/07/15 02:55:01;;;;;;;12.90;11.80;;;;;;;;;;6278094;22;19995;-74
2021/07/15 02:57:34;;;;;;;14.27;12.88;;;;;;;;;;6250873;22;20015;-77
2021/07/15 03:00:19;;;;;;;13.15;11.82;;;;;;;;;;6278036;22;20004;-75
2021/07/15 03:02:53;;;;;;;13.20;11.98;;;;;;;;;;6278084;22;20109;-74
2021/07/15 03:05:24;;;;;;;13.88;11.52;;;;;;;;;;6278005;22;20374;-74
2021/07/15 03:07:56;;;;;;;13.48;11.85;;;;;;;;;;6250883;22;20004;-76
2021/07/15 03:10:22;;;;;;;13.32;12.02;;;;;;;;;;6250781;22;20004;-75
2021/07/15 03:12:49;;;;;;;13.20;12.00;;;;;;;;;;6277676;22;20443;-77
2021/07/15 03:15:15;;;;;;;14.95;12.82;;;;;;;;;;6277874;22;20495;-74
2021/07/15 03:17:44;;;;;;;14.05;12.65;;;;;;;;;;6277800;22;20015;-76
2021/07/15 03:20:15;;;;;;;14.55;12.60;;;;;;;;;;6250728;22;20034;-75
2021/07/15 03:22:42;;;;;;;13.80;12.45;;;;;;;;;;6250760;22;19996;-75
2021/07/15 03:25:11;;;;;;;13.55;11.88;;;;;;;;;;6277954;22;20004;-75
2021/07/15 03:27:39;;;;;;;14.10;12.60;;;;;;;;;;6277855;22;20000;-77
2021/07/15 03:30:06;;;;;;;21.75;12.95;;;;;;;;;;6277812;22;20366;-76
2021/07/15 03:32:32;;;;;;;15.63;13.05;;;;;;;;;;6277744;22;20023;-73
2021/07/15 03:34:59;;;;;;;16.02;12.43;;;;;;;;;;6250571;22;19999;-74
2021/07/15 03:37:26;;;;;;;17.23;13.10;;;;;;;;;;6250481;22;20057;-75
2021/07/15 03:39:52;;;;;;;14.27;12.82;;;;;;;;;;6250551;22;20019;-76
2021/07/15 03:42:20;;;;;;;14.60;12.98;;;;;;;;;;6277684;22;20100;-74
2021/07/15 03:44:47;;;;;;;16.08;12.65;;;;;;;;;;6277566;22;19999;-77
2021/07/15 03:47:13;;;;;;;15.20;13.70;;;;;;;;;;6277755;22;19996;-75
2021/07/15 03:49:42;;;;;;;14.05;12.60;;;;;;;;;;6277613;22;20004;-73
2021/07/15 03:52:11;;;;;;;14.70;12.43;;;;;;;;;;6277728;22;20006;-74
2021/07/15 03:54:38;;;;;;;16.17;12.52;;;;;;;;;;6277475;22;20065;-74
2021/07/15 03:57:05;;;;;;;14.63;12.52;;;;;;;;;;6277589;22;20007;-74
2021/07/15 03:59:32;;;;;;;14.63;12.77;;;;;;;;;;6277595;22;20072;-76
2021/07/15 04:02:02;;;;;;;17.63;13.38;;;;;;;;;;6277430;22;19999;-75
2021/07/15 04:04:29;;;;;;;19.20;13.50;;;;;;;;;;6277511;22;20054;-76
2021/07/15 04:06:56;;;;;;;16.98;13.38;;;;;;;;;;6277379;22;20043;-76
2021/07/15 04:09:23;;;;;;;15.25;12.82;;;;;;;;;;6277454;22;20445;-78
2021/07/15 04:11:50;;;;;;;15.52;13.82;;;;;;;;;;6250124;22;20339;-77
2021/07/15 04:14:18;;;;;;;14.02;12.60;;;;;;;;;;6277446;22;20000;-75
2021/07/15 04:16:57;;;;;;;14.80;11.85;;;;;;;;;;6276960;22;20443;-76
2021/07/15 04:19:23;;;;;;;13.60;12.23;;;;;;;;;;6277276;22;20004;-75
2021/07/15 04:21:50;;;;;;;15.02;13.40;;;;;;;;;;6276960;22;20022;-77
2021/07/15 04:24:16;;;;;;;14.05;12.65;;;;;;;;;;6277177;22;20101;-76
2021/07/15 04:26:42;;;;;;;14.43;13.00;;;;;;;;;;6249857;22;20082;-76
2021/07/15 04:29:09;;;;;;;13.70;12.48;;;;;;;;;;6277741;22;20364;-76
2021/07/15 04:31:54;;;;;;;14.60;13.00;;;;;;;;;;6277214;22;20097;-76
2021/07/15 04:34:20;;;;;;;15.48;13.88;;;;;;;;;;6277255;22;19996;-77
2021/07/15 04:36:48;;;;;;;15.50;13.27;;;;;;;;;;6277047;22;20369;-74
2021/07/15 04:39:14;;;;;;;14.63;13.23;;;;;;;;;;6277037;22;20083;-77
2021/07/15 04:41:41;;;;;;;16.10;13.07;;;;;;;;;;6277004;22;20003;-76
2021/07/15 04:44:08;;;;;;;15.70;13.23;;;;;;;;;;6277101;22;20423;-74
2021/07/15 04:46:35;;;;;;;14.68;13.18;;;;;;;;;;6277066;22;20075;-75
2021/07/15 04:49:01;;;;;;;14.25;12.85;;;;;;;;;;6277360;22;20016;-75
2021/07/15 04:51:27;;;;;;;14.60;12.98;;;;;;;;;;6277013;22;20004;-74
2021/07/15 04:53:54;;;;;;;14.27;12.88;;;;;;;;;;6277317;22;19995;-77
2021/07/15 04:56:20;;;;;;;14.68;12.65;;;;;;;;;;6276951;22;20424;-75
2021/07/15 04:58:47;;;;;;;14.50;13.00;;;;;;;;;;6276968;22;20003;-77
2021/07/15 05:01:13;;;;;;;14.65;12.30;;;;;;;;;;6276940;22;20331;-75
2021/07/15 05:03:40;;;;;;;14.77;12.90;;;;;;;;;;6276034;22;19999;-75
2021/07/15 05:06:07;;;;;;;13.55;12.15;;;;;;;;;;6277039;22;20003;-78
2021/07/15 05:08:34;;;;;;;14.35;12.25;;;;;;;;;;6276811;22;20324;-77
2021/07/15 05:11:01;;;;;;;15.68;13.90;;;;;;;;;;6277018;22;20085;-76
2021/07/15 05:13:27;;;;;;;15.00;12.75;;;;;;;;;;6276803;22;20000;-74
2021/07/15 05:15:53;;;;;;;14.02;12.65;;;;;;;;;;6276731;22;20004;-78
2021/07/15 05:18:20;;;;;;;16.05;14.27;;;;;;;;;;6276743;22;20004;-75
2021/07/15 05:20:46;;;;;;;15.35;13.45;;;;;;;;;;6276449;22;20042;-78
2021/07/15 05:23:12;;;;;;;20.40;14.90;;;;;;;;;;6275808;22;20053;-77
2021/07/15 05:25:39;;;;;;;13.45;12.05;;;;;;;;;;6273004;22;20053;-76
2021/07/15 05:28:05;;;;;;;15.25;11.70;;;;;;;;;;6274140;22;20011;-77
2021/07/15 05:30:31;;;;;;;14.18;12.68;;;;;;;;;;6275309;22;19996;-77
2021/07/15 05:32:58;;;;;;;22.13;13.55;;;;;;;;;;6274916;22;20022;-76
2021/07/15 05:35:25;;;;;;;19.27;13.18;;;;;;;;;;6275581;22;19996;-75
2021/07/15 05:37:51;;;;;;;15.75;12.50;;;;;;;;;;6276470;22;20371;-77
2021/07/15 05:40:17;;;;;;;14.85;12.80;;;;;;;;;;6277810;22;20447;-76
2021/07/15 05:42:43;;;;;;;18.65;13.00;;;;;;;;;;6276587;22;20334;-77
2021/07/15 05:45:10;;;;;;;15.70;12.52;;;;;;;;;;6277042;22;20011;-76
2021/07/15 05:47:36;;;;;;;20.15;13.52;;;;;;;;;;6277647;22;20424;-78
2021/07/15 05:50:03;;;;;;;17.42;13.60;;;;;;;;;;6277397;22;20446;-78
2021/07/15 05:52:29;;;;;;;14.18;12.05;;;;;;;;;;6277548;22;20079;-78
2021/07/15 05:54:57;;;;;;;22.15;14.35;;;;;;;;;;6277446;22;20000;-79
2021/07/15 05:57:23;;;;;;;20.85;14.13;;;;;;;;;;6276566;22;20007;-78
2021/07/15 05:59:49;;;;;;;17.33;13.23;;;;;;;;;;6276942;22;20378;-80
2021/07/15 06:02:17;;;;;;;13.80;12.43;;;;;;;;;;6277525;22;20004;-77
2021/07/15 06:04:43;;;;;;;13.57;12.10;;;;;;;;;;6277238;22;20527;-77
2021/07/15 06:07:09;;;;;;;13.18;11.80;;;;;;;;;;6277300;22;20075;-77
2021/07/15 06:09:35;;;;;;;13.98;12.30;;;;;;;;;;6277543;22;20026;-80
2021/07/15 06:12:01;;;;;;;28.55;13.98;;;;;;;;;;6276776;22;20102;-81
2021/07/15 06:14:28;;;;;;;15.43;12.65;;;;;;;;;;6277008;22;20004;-78
2021/07/15 06:16:54;;;;;;;13.50;11.55;;;;;;;;;;6277109;22;20380;-77
2021/07/15 06:19:20;;;;;;;21.52;13.18;;;;;;;;;;6277432;22;19999;-77
2021/07/15 06:21:46;;;;;;;15.98;13.45;;;;;;;;;;6249915;22;20075;-78
2021/07/15 06:24:12;;;;;;;14.35;11.90;;;;;;;;;;6277215;22;20506;-78
2021/07/15 06:26:38;;;;;;;23.27;13.50;;;;;;;;;;6277290;22;20007;-75
2021/07/15 06:29:10;;;;;;;13.95;12.63;;;;;;;;;;6276589;22;20431;-79
2021/07/15 06:31:38;;;;;;;17.17;13.13;;;;;;;;;;6250138;22;20037;-77
2021/07/15 06:34:04;;;;;;;16.10;12.52;;;;;;;;;;6276693;22;20033;-77
2021/07/15 06:36:32;;;;;;;16.05;11.23;;;;;;;;;;6276748;22;20007;-77
2021/07/15 06:38:58;;;;;;;13.65;12.25;;;;;;;;;;6276674;22;20018;-77
2021/07/15 06:41:25;;;;;;;21.08;12.65;;;;;;;;;;6276980;22;20483;-77
2021/07/15 06:43:51;;;;;;;18.50;13.20;;;;;;;;;;6276328;22;20003;-79
2021/07/15 06:46:17;;;;;;;14.73;11.65;;;;;;;;;;6276958;22;19996;-77
2021/07/15 06:48:43;;;;;;;22.67;12.60;;;;;;;;;;6276372;22;19998;-76
2021/07/15 06:51:10;;;;;;;13.80;11.65;;;;;;;;;;6276280;22;20015;-76
2021/07/15 06:53:36;;;;;;;66.50;17.10;;;;;;;;;;6276582;22;20007;-76
2021/07/15 06:56:02;;;;;;;12.07;10.90;;;;;;;;;;6276292;22;20296;-76
2021/07/15 06:58:28;;;;;;;13.05;11.75;;;;;;;;;;6276345;22;19996;-75
2021/07/15 07:00:56;;;;;;;14.15;10.77;;;;;;;;;;6276702;22;20018;-76
2021/07/15 07:03:22;;;;;;;12.77;11.52;;;;;;;;;;6276484;22;20003;-76
2021/07/15 07:05:49;;;;;;;12.15;10.95;;;;;;;;;;6276777;22;20446;-75
2021/07/15 07:08:16;;;;;;;10.60;9.60;;;;;;;;;;6276191;22;20447;-76
2021/07/15 07:10:42;;;;;;;16.10;10.88;;;;;;;;;;6276539;22;20003;-76
2021/07/15 07:13:08;;;;;;;12.48;10.68;;;;;;;;;;6276547;22;20106;-76
2021/07/15 07:15:34;;;;;;;13.95;9.77;;;;;;;;;;6276613;22;20014;-76
2021/07/15 07:18:00;;;;;;;13.95;10.82;;;;;;;;;;6276662;22;19999;-77
2021/07/15 07:20:26;;;;;;;13.13;10.70;;;;;;;;;;6276295;22;20012;-76
2021/07/15 07:22:52;;;;;;;12.00;10.90;;;;;;;;;;6276074;22;20045;-76
2021/07/15 07:25:19;;;;;;;11.85;10.63;;;;;;;;;;6276219;22;20392;-77
2021/07/15 07:27:46;;;;;;;11.57;10.48;;;;;;;;;;6276480;22;20006;-77
2021/07/15 07:30:13;;;;;;;12.88;11.40;;;;;;;;;;6276321;22;20029;-76
2021/07/15 07:32:39;;;;;;;11.85;10.15;;;;;;;;;;6276793;22;20026;-77
2021/07/15 07:35:05;;;;;;;15.45;10.45;;;;;;;;;;6276713;22;20004;-77
2021/07/15 07:37:33;;;;;;;15.57;10.80;;;;;;;;;;6276183;22;20004;-79
2021/07/15 07:39:59;;;;;;;13.00;10.38;;;;;;;;;;6276518;22;20081;-76
2021/07/15 07:42:25;;;;;;;11.13;10.18;;;;;;;;;;6276128;22;20003;-77
2021/07/15 07:44:52;;;;;;;12.30;10.88;;;;;;;;;;6276592;22;19996;-79
2021/07/15 07:47:18;;;;;;;23.77;10.60;;;;;;;;;;6276359;22;20010;-77
2021/07/15 07:49:44;;;;;;;12.52;9.88;;;;;;;;;;6276606;22;20023;-77
2021/07/15 07:52:10;;;;;;;15.25;11.25;;;;;;;;;;6276099;22;20338;-77
2021/07/15 07:54:36;;;;;;;12.23;10.75;;;;;;;;;;6276344;22;20344;-76
2021/07/15 07:57:02;;;;;;;10.73;9.68;;;;;;;;;;6275880;22;20010;-77
2021/07/15 07:59:28;;;;;;;22.85;12.10;;;;;;;;;;6275210;22;20479;-79
2021/07/15 08:01:54;;;;;;;11.68;10.77;;;;;;;;;;6276583;22;19995;-78
2021/07/15 08:04:20;;;;;;;9.82;8.88;;;;;;;;;;6276001;22;20387;-79
2021/07/15 08:06:48;;;;;;;12.50;9.70;;;;;;;;;;6276515;22;20079;-79
2021/07/15 08:09:22;;;;;;;9.55;8.40;;;;;;;;;;6276350;22;20431;-77
2021/07/15 08:11:49;;;;;;;15.98;14.55;;;;;;;;;;6249025;22;20433;-76
2021/07/15 08:14:16;;;;;;;11.55;10.57;;;;;;;;;;6276024;22;20381;-77
2021/07/15 08:16:42;;;;;;;11.10;10.20;;;;;;;;;;6276319;22;20087;-75
2021/07/15 08:19:08;;;;;;;13.20;9.82;;;;;;;;;;6275993;22;20403;-76
2021/07/15 08:21:35;;;;;;;11.23;10.07;;;;;;;;;;6275825;22;20320;-77
2021/07/15 08:24:01;;;;;;;10.85;9.85;;;;;;;;;;6276115;22;20035;-78
2021/07/15 08:26:27;;;;;;;11.10;9.95;;;;;;;;;;6275912;22;20000;-78
2021/07/15 08:28:53;;;;;;;16.85;10.93;;;;;;;;;;6275721;22;20066;-78
2021/07/15 08:31:20;;;;;;;20.08;10.23;;;;;;;;;;6275729;22;20007;-76
2021/07/15 08:33:46;;;;;;;14.40;10.52;;;;;;;;;;6275783;22;20000;-77
2021/07/15 08:36:12;;;;;;;16.83;10.70;;;;;;;;;;6276012;22;20400;-78
2021/07/15 08:38:40;;;;;;;11.60;10.00;;;;;;;;;;6276529;22;20065;-80
2021/07/15 08:41:07;;;;;;;11.52;10.30;;;;;;;;;;6276846;22;20110;-78
2021/07/15 08:43:34;;;;;;;13.02;10.27;;;;;;;;;;6276667;22;20003;-77
2021/07/15 08:46:00;;;;;;;15.57;10.50;;;;;;;;;;6276803;22;20138;-77
2021/07/15 08:48:28;;;;;;;15.75;10.73;;;;;;;;;;6275117;22;20008;-77
2021/07/15 08:50:54;;;;;;;11.02;10.05;;;;;;;;;;6274347;22;20003;-77
2021/07/15 08:53:22;;;;;;;9.90;9.20;;;;;;;;;;6249162;22;20327;-76
2021/07/15 08:58:33;;;;;;;10.45;9.55;;;;;;;;;;6275748;22;20054;-76
2021/07/15 09:00:59;;;;;;;12.02;10.57;;;;;;;;;;6275816;22;20330;-77
2021/07/15 09:03:25;;;;;;;21.33;10.95;;;;;;;;;;6275684;22;20420;-76
2021/07/15 09:05:51;;;;;;;22.02;10.15;;;;;;;;;;6275398;22;19996;-77
2021/07/15 09:08:21;;;;;;;11.68;10.40;;;;;;;;;;6247663;22;20000;-79
2021/07/15 09:10:47;;;;;;;29.92;11.20;;;;;;;;;;6247298;22;20343;-77
2021/07/15 09:13:14;;;;;;;11.05;10.00;;;;;;;;;;6274973;22;19996;-77
2021/07/15 09:15:46;;;;;;;17.33;11.32;;;;;;;;;;6275560;22;20022;-78
2021/07/15 09:18:13;;;;;;;12.05;9.75;;;;;;;;;;6275347;22;20012;-77
2021/07/15 09:20:39;;;;;;;19.38;11.52;;;;;;;;;;6274877;22;20052;-77
2021/07/15 09:23:07;;;;;;;15.95;10.90;;;;;;;;;;6275936;22;20015;-77
2021/07/15 09:25:39;;;;;;;28.60;11.55;;;;;;;;;;6247641;22;20012;-78
2021/07/15 09:28:06;;;;;;;10.95;9.88;;;;;;;;;;6275213;22;20054;-77
2021/07/15 09:30:32;;;;;;;10.27;9.23;;;;;;;;;;6275111;22;20011;-78
2021/07/15 09:33:16;;;;;;;18.50;10.35;;;;;;;;;;6274882;22;20489;-77
2021/07/15 09:35:44;;;;;;;11.55;10.38;;;;;;;;;;6274976;22;20026;-77
2021/07/15 09:38:10;;;;;;;12.88;11.20;;;;;;;;;;6273407;22;20044;-77
2021/07/15 09:40:40;;;;;;;13.82;10.27;;;;;;;;;;6246956;22;20011;-77
2021/07/15 09:43:13;;;;;;;19.77;10.15;;;;;;;;;;6275090;22;20000;-78
2021/07/15 09:45:39;;;;;;;11.18;9.50;;;;;;;;;;6274964;22;20328;-78
2021/07/15 09:48:20;;;;;;;21.60;10.70;;;;;;;;;;6275024;22;20011;-78
2021/07/15 09:50:48;;;;;;;33.33;11.93;;;;;;;;;;6274131;22;20026;-78
2021/07/15 09:53:21;;;;;;;11.52;10.32;;;;;;;;;;6275510;22;19996;-77
2021/07/15 09:55:48;;;;;;;10.57;9.70;;;;;;;;;;6275333;22;20007;-77
2021/07/15 09:58:15;;;;;;;11.25;10.13;;;;;;;;;;6275625;22;20057;-77
2021/07/15 10:00:42;;;;;;;10.80;9.90;;;;;;;;;;6247711;22;20003;-78
2021/07/15 10:03:09;;;;;;;10.90;9.35;;;;;;;;;;6274752;22;19999;-80
2021/07/15 10:05:36;;;;;;;11.57;10.38;;;;;;;;;;6275381;22;20003;-78
2021/07/15 10:08:03;;;;;;;10.13;9.10;;;;;;;;;;6275177;22;20011;-80
2021/07/15 10:10:29;;;;;;;15.25;9.93;;;;;;;;;;6274895;22;19996;-79
2021/07/15 10:12:56;;;;;;;18.35;10.18;;;;;;;;;;6274495;22;20074;-79
2021/07/15 10:15:22;;;;;;;10.50;9.45;;;;;;;;;;6247691;22;20030;-79
2021/07/15 10:17:51;;;;;;;13.25;10.10;;;;;;;;;;6274774;22;20011;-78
2021/07/15 10:20:18;;;;;;;10.95;9.73;;;;;;;;;;6274191;22;20008;-78
2021/07/15 10:22:45;;;;;;;11.07;9.93;;;;;;;;;;6274657;22;20002;-77
2021/07/15 10:25:12;;;;;;;10.13;9.23;;;;;;;;;;6274856;22;20015;-79
2021/07/15 10:27:39;;;;;;;30.33;12.20;;;;;;;;;;6275952;22;20017;-79
2021/07/15 10:30:07;;;;;;;12.63;10.48;;;;;;;;;;6276937;22;20003;-80
2021/07/15 10:32:35;;;;;;;12.07;9.45;;;;;;;;;;6277025;22;20004;-79
2021/07/15 10:35:02;;;;;;;15.63;10.35;;;;;;;;;;6276914;22;20445;-79
2021/07/15 10:37:29;;;;;;;12.20;9.02;;;;;;;;;;6276821;22;20011;-79
2021/07/15 10:39:55;;;;;;;11.07;9.38;;;;;;;;;;6276715;22;20053;-79
2021/07/15 10:42:21;;;;;;;32.97;11.45;;;;;;;;;;6277162;22;20004;-78
2021/07/15 10:44:47;;;;;;;20.08;10.02;;;;;;;;;;6277665;22;20054;-80
2021/07/15 10:47:14;;;;;;;11.40;10.40;;;;;;;;;;6276188;22;19999;-78
2021/07/15 10:49:41;;;;;;;11.30;10.07;;;;;;;;;;6277064;22;20004;-83
2021/07/15 10:52:08;;;;;;;26.17;11.55;;;;;;;;;;6250316;22;20079;-78
2021/07/15 10:54:35;;;;;;;11.45;10.30;;;;;;;;;;6277829;22;20003;-79
2021/07/15 10:57:01;;;;;;;10.80;9.52;;;;;;;;;;6277561;22;20450;-83
2021/07/15 10:59:28;;;;;;;18.67;10.13;;;;;;;;;;6277657;22;20469;-80
2021/07/15 11:02:02;;;;;;;18.92;9.98;;;;;;;;;;6277957;22;20022;-79
2021/07/15 11:04:30;;;;;;;13.20;10.55;;;;;;;;;;6277762;22;20031;-82
2021/07/15 11:07:01;;;;;;;11.40;10.27;;;;;;;;;;6250140;22;20008;-82
2021/07/15 11:09:31;;;;;;;16.85;11.27;;;;;;;;;;6277424;22;20008;-82
2021/07/15 11:11:58;;;;;;;11.43;10.23;;;;;;;;;;6277191;22;20031;-80
2021/07/15 11:14:45;;;;;;;11.27;10.35;;;;;;;;;;6277897;22;20367;-79
2021/07/15 11:17:23;;;;;;;14.15;9.95;;;;;;;;;;6274907;22;20011;-79
2021/07/15 11:20:08;;;;;;;12.45;9.65;;;;;;;;;;6276085;22;20066;-81
2021/07/15 11:22:34;;;;;;;11.50;10.32;;;;;;;;;;6276215;22;20368;-80
2021/07/15 11:25:06;;;;;;;14.07;10.65;;;;;;;;;;6276172;22;20382;-81
2021/07/15 11:27:36;;;;;;;10.38;9.27;;;;;;;;;;6276559;22;20000;-78
2021/07/15 11:30:02;;;;;;;11.73;10.02;;;;;;;;;;6276292;22;20034;-77
2021/07/15 11:32:28;;;;;;;9.98;9.27;;;;;;;;;;6275834;22;20378;-78
2021/07/15 11:34:55;;;;;;;27.15;11.43;;;;;;;;;;6276216;22;20014;-81
2021/07/15 11:37:36;;;;;;;10.77;9.80;;;;;;;;;;6276569;22;20010;-81
2021/07/15 11:40:04;;;;;;;11.80;9.98;;;;;;;;;;6276051;22;20043;-78
2021/07/15 11:42:36;;;;;;;80.60;16.88;;;;;;;;;;6276660;22;20006;-77
2021/07/15 11:45:05;;;;;;;12.10;10.52;;;;;;;;;;6276179;22;20450;-79
2021/07/15 11:47:51;;;;;;;11.13;10.18;;;;;;;;;;6275166;22;20085;-81
2021/07/15 11:50:33;;;;;;;14.52;10.20;;;;;;;;;;6275734;22;20011;-80
2021/07/15 11:53:18;;;;;;;11.00;10.00;;;;;;;;;;6275891;22;20004;-78
2021/07/15 11:55:45;;;;;;;20.70;10.75;;;;;;;;;;6276004;22;20435;-81
2021/07/15 11:58:30;;;;;;;16.48;10.23;;;;;;;;;;6276113;22;20012;-78
2021/07/15 12:01:15;;;;;;;12.90;9.75;;;;;;;;;;6275948;22;20034;-79
2021/07/15 12:04:16;;;;;;;12.23;10.43;;;;;;;;;;6275780;22;20486;-79
2021/07/15 12:06:43;;;;;;;11.63;10.60;;;;;;;;;;6152515;23;20016;-81
2021/07/15 12:09:10;;;;;;;16.92;10.70;;;;;;;;;;6152460;23;20423;-79
2021/07/15 12:11:38;;;;;;;11.65;10.00;;;;;;;;;;6152381;23;20433;-80
2021/07/15 12:14:05;;;;;;;17.40;10.50;;;;;;;;;;6173397;22;20090;-79
2021/07/15 12:16:32;;;;;;;22.05;11.77;;;;;;;;;;6248907;22;20038;-78
2021/07/15 12:19:02;;;;;;;11.55;10.23;;;;;;;;;;6275639;22;20037;-77
2021/07/15 12:21:30;;;;;;;10.75;9.82;;;;;;;;;;6276160;22;19996;-80
2021/07/15 12:23:56;;;;;;;12.73;11.73;;;;;;;;;;6275702;22;20377;-78
2021/07/15 12:26:23;;;;;;;16.25;12.75;;;;;;;;;;6249318;22;20018;-78
2021/07/15 12:28:49;;;;;;;12.00;10.88;;;;;;;;;;6275904;22;20003;-79
2021/07/15 12:31:20;;;;;;;13.95;10.52;;;;;;;;;;6248190;22;20357;-77
2021/07/15 12:33:50;;;;;;;11.50;9.55;;;;;;;;;;6275931;22;20003;-77
2021/07/15 12:36:24;;;;;;;11.23;9.93;;;;;;;;;;6274938;22;20036;-76
2021/07/15 12:38:51;;;;;;;11.38;10.25;;;;;;;;;;6246578;22;20051;-75
2021/07/15 12:41:19;;;;;;;12.82;10.13;;;;;;;;;;6248820;22;20012;-77
2021/07/15 12:43:46;;;;;;;14.10;10.68;;;;;;;;;;6274827;22;20073;-76
2021/07/15 12:46:14;;;;;;;13.43;10.50;;;;;;;;;;6274969;22;20002;-80
2021/07/15 12:48:41;;;;;;;11.18;10.23;;;;;;;;;;6248332;22;20032;-79
2021/07/15 12:51:07;;;;;;;12.23;9.60;;;;;;;;;;6275503;22;20052;-77
2021/07/15 12:53:38;;;;;;;15.10;10.73;;;;;;;;;;6275451;22;20301;-76
2021/07/15 12:56:05;;;;;;;20.10;10.43;;;;;;;;;;6275177;22;20014;-78
2021/07/15 12:58:31;;;;;;;12.45;10.05;;;;;;;;;;6275397;22;20004;-76
2021/07/15 13:01:02;;;;;;;13.80;10.32;;;;;;;;;;6274700;22;20046;-78
2021/07/15 13:03:28;;;;;;;14.23;11.15;;;;;;;;;;6275712;22;20489;-77
2021/07/15 13:05:54;;;;;;;17.65;11.60;;;;;;;;;;6275547;22;19991;-78
2021/07/15 13:08:27;;;;;;;12.40;11.20;;;;;;;;;;6275609;22;20042;-77
2021/07/15 13:16:22;;;;;;;12.98;11.77;;;;;;;;;;6273195;22;20469;-77
2021/07/15 13:18:49;;;;;;;12.48;11.27;;;;;;;;;;6274497;22;20012;-76
2021/07/15 13:21:33;;;;;;;12.73;11.52;;;;;;;;;;6275338;22;19996;-76
2021/07/15 13:24:01;;;;;;;12.70;9.80;;;;;;;;;;6275267;22;20000;-77
2021/07/15 13:26:27;;;;;;;11.02;9.77;;;;;;;;;;6275133;22;20411;-76
2021/07/15 13:28:53;;;;;;;19.77;10.95;;;;;;;;;;6274858;22;20004;-76
2021/07/15 13:31:19;;;;;;;15.32;10.30;;;;;;;;;;6245862;22;20038;-76
2021/07/15 13:33:47;;;;;;;12.48;10.07;;;;;;;;;;6275114;22;20007;-78
2021/07/15 13:36:14;;;;;;;12.52;10.23;;;;;;;;;;6247666;22;20008;-77
2021/07/15 13:38:47;;;;;;;17.48;11.13;;;;;;;;;;6275058;22;20015;-79
2021/07/15 13:41:30;;;;;;;13.25;10.60;;;;;;;;;;6275472;22;20000;-78
2021/07/15 13:43:57;;;;;;;;;;;;;;;;;;6276015;22;20015;-76
2021/07/15 13:46:25;;;;;;;12.38;11.27;;;;;;;;;;6274898;22;19899;-78
2021/07/15 13:48:51;;;;;;;12.30;10.48;;;;;;;;;;6275612;22;20000;-77
2021/07/15 13:51:23;;;;;;;16.70;15.13;;;;;;;;;;6275368;22;20008;-78
2021/07/15 13:53:49;;;;;;;28.63;12.68;;;;;;;;;;6275466;22;20007;-78
2021/07/15 13:56:22;;;;;;;13.63;12.23;;;;;;;;;;6275408;22;20074;-77
2021/07/15 13:58:48;;;;;;;13.80;12.27;;;;;;;;;;6277435;22;19996;-76
2021/07/15 14:01:25;;;;;;;12.63;11.32;;;;;;;;;;6276858;22;20007;-79
2021/07/15 14:03:51;;;;;;;12.85;11.60;;;;;;;;;;6277412;22;19999;-77
2021/07/15 14:06:18;;;;;;;14.52;11.30;;;;;;;;;;6276993;22;20455;-78
2021/07/15 14:08:44;;;;;;;20.23;11.15;;;;;;;;;;6277357;22;20034;-78
2021/07/15 14:11:14;;;;;;;11.00;9.98;;;;;;;;;;6277355;22;20000;-77
2021/07/15 14:13:41;;;;;;;12.80;10.98;;;;;;;;;;6277505;22;20442;-77
2021/07/15 14:16:07;;;;;;;10.98;10.07;;;;;;;;;;6277333;22;20034;-77
2021/07/15 14:18:33;;;;;;;11.57;10.38;;;;;;;;;;6277225;22;20004;-79
2021/07/15 14:21:01;;;;;;;14.32;10.75;;;;;;;;;;6277510;22;20053;-78
2021/07/15 14:23:29;;;;;;;17.48;11.27;;;;;;;;;;6277483;22;20008;-80
2021/07/15 14:25:57;;;;;;;19.17;11.35;;;;;;;;;;6277544;22;20017;-78
2021/07/15 14:28:24;;;;;;;21.52;12.38;;;;;;;;;;6277298;22;20331;-78
2021/07/15 14:30:50;;;;;;;11.93;10.73;;;;;;;;;;6277360;22;20004;-77
2021/07/15 14:33:17;;;;;;;13.90;11.80;;;;;;;;;;6277544;22;20010;-77
2021/07/15 14:35:44;;;;;;;13.48;11.05;;;;;;;;;;6277431;22;20079;-78